sensor_id;sensor_type;location;lat;lon;timestamp;P1;durP1;ratioP1;P2;durP2;ratioP2
70757;SDS011;59316;52.964;7.102;2023-12-04T00:00:54;32.08;;;13.02;;
70757;SDS011;59316;52.964;7.102;2023-12-04T00:06:15;30.77;;;12.20;;
70757;SDS011;59316;52.964;7.102;2023-12-04T00:11:36;32.25;;;13.30;;
70757;SDS011;59316;52.964;7.102;2023-12-04T00:16:58;33.10;;;12.60;;
70757;SDS011;59316;52.964;7.102;2023-12-04T00:22:19;35.63;;;13.95;;
70757;SDS011;59316;52.964;7.102;2023-12-04T00:27:40;33.38;;;12.60;;
70757;SDS011;59316;52.964;7.102;2023-12-04T00:33:02;30.33;;;12.60;;
70757;SDS011;59316;52.964;7.102;2023-12-04T00:38:23;32.50;;;13.23;;
70757;SDS011;59316;52.964;7.102;2023-12-04T00:43:44;35.83;;;13.85;;
70757;SDS011;59316;52.964;7.102;2023-12-04T00:49:06;37.00;;;13.23;;
70757;SDS011;59316;52.964;7.102;2023-12-04T00:54:27;36.30;;;13.35;;
70757;SDS011;59316;52.964;7.102;2023-12-04T00:59:49;33.08;;;12.57;;
70757;SDS011;59316;52.964;7.102;2023-12-04T01:05:10;37.85;;;14.13;;
70757;SDS011;59316;52.964;7.102;2023-12-04T01:10:31;38.13;;;14.07;;
70757;SDS011;59316;52.964;7.102;2023-12-04T01:15:52;39.50;;;13.80;;
70757;SDS011;59316;52.964;7.102;2023-12-04T01:21:14;37.20;;;14.05;;
70757;SDS011;59316;52.964;7.102;2023-12-04T01:26:36;39.10;;;14.05;;
70757;SDS011;59316;52.964;7.102;2023-12-04T01:32:01;35.22;;;13.82;;
70757;SDS011;59316;52.964;7.102;2023-12-04T01:37:22;37.08;;;13.45;;
70757;SDS011;59316;52.964;7.102;2023-12-04T01:42:43;37.83;;;13.90;;
70757;SDS011;59316;52.964;7.102;2023-12-04T01:48:04;39.35;;;14.38;;
70757;SDS011;59316;52.964;7.102;2023-12-04T01:58:50;45.10;;;13.68;;
70757;SDS011;59316;52.964;7.102;2023-12-04T02:04:12;37.85;;;13.82;;
70757;SDS011;59316;52.964;7.102;2023-12-04T02:09:34;37.90;;;14.73;;
70757;SDS011;59316;52.964;7.102;2023-12-04T02:14:55;39.30;;;14.40;;
70757;SDS011;59316;52.964;7.102;2023-12-04T02:20:17;35.72;;;13.85;;
70757;SDS011;59316;52.964;7.102;2023-12-04T02:25:39;37.33;;;12.98;;
70757;SDS011;59316;52.964;7.102;2023-12-04T02:31:01;35.00;;;12.95;;
70757;SDS011;59316;52.964;7.102;2023-12-04T02:36:28;38.17;;;14.27;;
70757;SDS011;59316;52.964;7.102;2023-12-04T02:47:13;36.78;;;13.18;;
70757;SDS011;59316;52.964;7.102;2023-12-04T02:52:34;38.10;;;13.70;;
70757;SDS011;59316;52.964;7.102;2023-12-04T02:57:56;34.83;;;13.57;;
70757;SDS011;59316;52.964;7.102;2023-12-04T03:03:18;43.03;;;14.93;;
70757;SDS011;59316;52.964;7.102;2023-12-04T03:08:39;37.10;;;14.30;;
70757;SDS011;59316;52.964;7.102;2023-12-04T03:14:01;38.10;;;14.68;;
70757;SDS011;59316;52.964;7.102;2023-12-04T03:19:22;38.08;;;14.88;;
70757;SDS011;59316;52.964;7.102;2023-12-04T03:24:44;41.75;;;14.70;;
70757;SDS011;59316;52.964;7.102;2023-12-04T03:30:05;45.10;;;14.50;;
70757;SDS011;59316;52.964;7.102;2023-12-04T03:35:27;38.90;;;14.40;;
70757;SDS011;59316;52.964;7.102;2023-12-04T03:40:49;42.75;;;14.68;;
70757;SDS011;59316;52.964;7.102;2023-12-04T03:46:10;37.50;;;14.32;;
70757;SDS011;59316;52.964;7.102;2023-12-04T03:51:32;41.28;;;14.02;;
70757;SDS011;59316;52.964;7.102;2023-12-04T03:56:53;44.83;;;14.73;;
70757;SDS011;59316;52.964;7.102;2023-12-04T04:02:15;43.65;;;14.80;;
70757;SDS011;59316;52.964;7.102;2023-12-04T04:07:36;39.88;;;13.77;;
70757;SDS011;59316;52.964;7.102;2023-12-04T04:12:58;42.10;;;14.23;;
70757;SDS011;59316;52.964;7.102;2023-12-04T04:18:19;42.42;;;13.98;;
70757;SDS011;59316;52.964;7.102;2023-12-04T04:23:41;43.33;;;14.80;;
70757;SDS011;59316;52.964;7.102;2023-12-04T04:29:02;37.30;;;13.32;;
70757;SDS011;59316;52.964;7.102;2023-12-04T04:34:23;43.00;;;15.15;;
70757;SDS011;59316;52.964;7.102;2023-12-04T04:39:45;34.75;;;13.57;;
70757;SDS011;59316;52.964;7.102;2023-12-04T04:45:06;40.13;;;15.35;;
70757;SDS011;59316;52.964;7.102;2023-12-04T04:50:28;42.17;;;14.43;;
70757;SDS011;59316;52.964;7.102;2023-12-04T04:55:50;40.08;;;14.60;;
70757;SDS011;59316;52.964;7.102;2023-12-04T05:01:11;35.92;;;12.52;;
70757;SDS011;59316;52.964;7.102;2023-12-04T05:06:33;38.83;;;13.40;;
70757;SDS011;59316;52.964;7.102;2023-12-04T05:11:55;38.47;;;14.93;;
70757;SDS011;59316;52.964;7.102;2023-12-04T05:17:16;38.80;;;13.65;;
70757;SDS011;59316;52.964;7.102;2023-12-04T05:22:38;35.88;;;12.55;;
70757;SDS011;59316;52.964;7.102;2023-12-04T05:28:00;35.17;;;13.38;;
70757;SDS011;59316;52.964;7.102;2023-12-04T05:33:21;37.00;;;13.02;;
70757;SDS011;59316;52.964;7.102;2023-12-04T05:38:43;31.17;;;12.35;;
70757;SDS011;59316;52.964;7.102;2023-12-04T05:44:04;37.05;;;12.57;;
70757;SDS011;59316;52.964;7.102;2023-12-04T05:49:25;34.53;;;12.25;;
70757;SDS011;59316;52.964;7.102;2023-12-04T05:54:47;32.67;;;13.10;;
70757;SDS011;59316;52.964;7.102;2023-12-04T06:00:08;37.33;;;12.75;;
70757;SDS011;59316;52.964;7.102;2023-12-04T06:05:30;33.80;;;12.02;;
70757;SDS011;59316;52.964;7.102;2023-12-04T06:10:52;35.45;;;13.93;;
70757;SDS011;59316;52.964;7.102;2023-12-04T06:16:14;35.10;;;12.20;;
70757;SDS011;59316;52.964;7.102;2023-12-04T06:21:35;32.75;;;11.80;;
70757;SDS011;59316;52.964;7.102;2023-12-04T06:26:56;30.63;;;11.38;;
70757;SDS011;59316;52.964;7.102;2023-12-04T06:32:18;28.70;;;11.65;;
70757;SDS011;59316;52.964;7.102;2023-12-04T06:37:41;32.63;;;10.95;;
70757;SDS011;59316;52.964;7.102;2023-12-04T06:43:02;33.25;;;11.50;;
70757;SDS011;59316;52.964;7.102;2023-12-04T06:48:24;29.17;;;11.40;;
70757;SDS011;59316;52.964;7.102;2023-12-04T06:53:46;28.70;;;10.93;;
70757;SDS011;59316;52.964;7.102;2023-12-04T06:59:07;34.15;;;11.07;;
70757;SDS011;59316;52.964;7.102;2023-12-04T07:04:28;34.35;;;11.82;;
70757;SDS011;59316;52.964;7.102;2023-12-04T07:09:50;26.38;;;10.95;;
70757;SDS011;59316;52.964;7.102;2023-12-04T07:15:11;28.67;;;10.95;;
70757;SDS011;59316;52.964;7.102;2023-12-04T07:20:33;30.05;;;10.77;;
70757;SDS011;59316;52.964;7.102;2023-12-04T07:25:54;24.05;;;10.40;;
70757;SDS011;59316;52.964;7.102;2023-12-04T07:31:16;26.35;;;10.50;;
70757;SDS011;59316;52.964;7.102;2023-12-04T07:36:37;23.27;;;9.48;;
70757;SDS011;59316;52.964;7.102;2023-12-04T07:41:59;23.52;;;9.60;;
70757;SDS011;59316;52.964;7.102;2023-12-04T07:47:32;20.80;;;9.80;;
70757;SDS011;59316;52.964;7.102;2023-12-04T07:52:54;22.02;;;8.48;;
70757;SDS011;59316;52.964;7.102;2023-12-04T07:58:15;24.20;;;9.52;;
70757;SDS011;59316;52.964;7.102;2023-12-04T08:03:37;20.83;;;8.80;;
70757;SDS011;59316;52.964;7.102;2023-12-04T08:08:59;21.45;;;8.63;;
70757;SDS011;59316;52.964;7.102;2023-12-04T08:14:20;22.67;;;9.43;;
70757;SDS011;59316;52.964;7.102;2023-12-04T08:19:42;17.52;;;8.52;;
70757;SDS011;59316;52.964;7.102;2023-12-04T08:25:04;19.45;;;8.70;;
70757;SDS011;59316;52.964;7.102;2023-12-04T08:30:26;15.70;;;6.88;;
70757;SDS011;59316;52.964;7.102;2023-12-04T08:35:47;19.67;;;7.97;;
70757;SDS011;59316;52.964;7.102;2023-12-04T08:41:08;14.80;;;8.30;;
70757;SDS011;59316;52.964;7.102;2023-12-04T08:46:30;20.33;;;8.50;;
70757;SDS011;59316;52.964;7.102;2023-12-04T08:51:52;18.52;;;7.70;;
70757;SDS011;59316;52.964;7.102;2023-12-04T08:57:13;16.33;;;7.68;;
70757;SDS011;59316;52.964;7.102;2023-12-04T09:02:35;17.95;;;7.13;;
70757;SDS011;59316;52.964;7.102;2023-12-04T09:08:08;13.63;;;7.00;;
70757;SDS011;59316;52.964;7.102;2023-12-04T09:18:53;17.05;;;7.28;;
70757;SDS011;59316;52.964;7.102;2023-12-04T09:24:15;14.73;;;6.32;;
70757;SDS011;59316;52.964;7.102;2023-12-04T09:29:36;17.35;;;7.03;;
70757;SDS011;59316;52.964;7.102;2023-12-04T09:34:58;19.08;;;7.57;;
70757;SDS011;59316;52.964;7.102;2023-12-04T09:40:19;14.32;;;6.85;;
70757;SDS011;59316;52.964;7.102;2023-12-04T09:45:41;14.77;;;6.43;;
70757;SDS011;59316;52.964;7.102;2023-12-04T09:51:02;13.10;;;6.47;;
70757;SDS011;59316;52.964;7.102;2023-12-04T09:56:24;11.75;;;6.20;;
70757;SDS011;59316;52.964;7.102;2023-12-04T10:01:47;12.65;;;6.32;;
70757;SDS011;59316;52.964;7.102;2023-12-04T10:07:09;13.35;;;6.18;;
70757;SDS011;59316;52.964;7.102;2023-12-04T10:12:30;13.82;;;6.57;;
70757;SDS011;59316;52.964;7.102;2023-12-04T10:17:53;14.38;;;6.22;;
70757;SDS011;59316;52.964;7.102;2023-12-04T10:23:14;15.18;;;7.22;;
70757;SDS011;59316;52.964;7.102;2023-12-04T10:28:35;13.35;;;6.47;;
70757;SDS011;59316;52.964;7.102;2023-12-04T10:33:57;14.10;;;6.63;;
70757;SDS011;59316;52.964;7.102;2023-12-04T10:39:19;14.13;;;6.43;;
70757;SDS011;59316;52.964;7.102;2023-12-04T10:44:41;14.88;;;6.70;;
70757;SDS011;59316;52.964;7.102;2023-12-04T10:50:02;14.00;;;7.25;;
70757;SDS011;59316;52.964;7.102;2023-12-04T10:55:24;13.43;;;6.80;;
70757;SDS011;59316;52.964;7.102;2023-12-04T11:00:46;12.30;;;6.32;;
70757;SDS011;59316;52.964;7.102;2023-12-04T11:06:10;11.25;;;5.35;;
70757;SDS011;59316;52.964;7.102;2023-12-04T11:11:36;12.65;;;6.20;;
70757;SDS011;59316;52.964;7.102;2023-12-04T11:17:06;12.60;;;6.03;;
70757;SDS011;59316;52.964;7.102;2023-12-04T11:22:32;12.75;;;6.03;;
70757;SDS011;59316;52.964;7.102;2023-12-04T11:27:55;12.20;;;5.90;;
70757;SDS011;59316;52.964;7.102;2023-12-04T11:33:18;12.52;;;6.50;;
70757;SDS011;59316;52.964;7.102;2023-12-04T11:38:43;14.15;;;6.28;;
70757;SDS011;59316;52.964;7.102;2023-12-04T11:44:11;15.07;;;6.80;;
70757;SDS011;59316;52.964;7.102;2023-12-04T11:49:33;11.80;;;6.25;;
70757;SDS011;59316;52.964;7.102;2023-12-04T11:54:56;13.25;;;6.32;;
70757;SDS011;59316;52.964;7.102;2023-12-04T12:00:24;13.70;;;6.15;;
70757;SDS011;59316;52.964;7.102;2023-12-04T12:05:45;14.45;;;6.53;;
70757;SDS011;59316;52.964;7.102;2023-12-04T12:11:10;12.10;;;5.82;;
70757;SDS011;59316;52.964;7.102;2023-12-04T12:16:32;12.50;;;6.30;;
70757;SDS011;59316;52.964;7.102;2023-12-04T12:21:53;13.75;;;6.55;;
70757;SDS011;59316;52.964;7.102;2023-12-04T12:27:15;13.30;;;6.43;;
70757;SDS011;59316;52.964;7.102;2023-12-04T12:32:37;11.90;;;5.95;;
70757;SDS011;59316;52.964;7.102;2023-12-04T12:37:59;12.00;;;6.40;;
70757;SDS011;59316;52.964;7.102;2023-12-04T12:43:21;12.52;;;6.38;;
70757;SDS011;59316;52.964;7.102;2023-12-04T12:48:42;12.75;;;6.80;;
70757;SDS011;59316;52.964;7.102;2023-12-04T12:54:04;11.45;;;5.93;;
70757;SDS011;59316;52.964;7.102;2023-12-04T12:59:26;14.27;;;6.72;;
70757;SDS011;59316;52.964;7.102;2023-12-04T13:04:48;12.27;;;6.25;;
70757;SDS011;59316;52.964;7.102;2023-12-04T13:10:12;13.80;;;6.47;;
70757;SDS011;59316;52.964;7.102;2023-12-04T13:15:33;12.77;;;6.38;;
70757;SDS011;59316;52.964;7.102;2023-12-04T13:20:54;13.10;;;5.82;;
70757;SDS011;59316;52.964;7.102;2023-12-04T13:26:16;13.85;;;6.50;;
70757;SDS011;59316;52.964;7.102;2023-12-04T13:31:37;12.50;;;6.43;;
70757;SDS011;59316;52.964;7.102;2023-12-04T13:36:59;15.25;;;6.88;;
70757;SDS011;59316;52.964;7.102;2023-12-04T13:42:20;15.45;;;7.28;;
70757;SDS011;59316;52.964;7.102;2023-12-04T13:47:42;13.95;;;6.30;;
70757;SDS011;59316;52.964;7.102;2023-12-04T13:53:05;13.50;;;6.45;;
70757;SDS011;59316;52.964;7.102;2023-12-04T13:58:26;11.43;;;6.18;;
70757;SDS011;59316;52.964;7.102;2023-12-04T14:03:48;14.20;;;6.40;;
70757;SDS011;59316;52.964;7.102;2023-12-04T14:09:09;13.23;;;6.15;;
70757;SDS011;59316;52.964;7.102;2023-12-04T14:14:31;15.43;;;6.13;;
70757;SDS011;59316;52.964;7.102;2023-12-04T14:19:52;12.48;;;6.25;;
70757;SDS011;59316;52.964;7.102;2023-12-04T14:25:14;10.45;;;5.65;;
70757;SDS011;59316;52.964;7.102;2023-12-04T14:30:36;13.57;;;6.38;;
70757;SDS011;59316;52.964;7.102;2023-12-04T14:35:57;14.02;;;6.43;;
70757;SDS011;59316;52.964;7.102;2023-12-04T14:41:18;13.38;;;6.00;;
70757;SDS011;59316;52.964;7.102;2023-12-04T14:46:40;12.65;;;6.47;;
70757;SDS011;59316;52.964;7.102;2023-12-04T14:52:02;14.10;;;6.10;;
70757;SDS011;59316;52.964;7.102;2023-12-04T14:57:23;15.00;;;5.70;;
70757;SDS011;59316;52.964;7.102;2023-12-04T15:02:44;12.88;;;6.22;;
70757;SDS011;59316;52.964;7.102;2023-12-04T15:08:06;11.38;;;5.90;;
70757;SDS011;59316;52.964;7.102;2023-12-04T15:13:27;11.23;;;5.95;;
70757;SDS011;59316;52.964;7.102;2023-12-04T15:18:49;14.77;;;7.05;;
70757;SDS011;59316;52.964;7.102;2023-12-04T15:24:10;12.48;;;6.25;;
70757;SDS011;59316;52.964;7.102;2023-12-04T15:29:32;13.30;;;6.18;;
70757;SDS011;59316;52.964;7.102;2023-12-04T15:34:53;13.13;;;6.15;;
70757;SDS011;59316;52.964;7.102;2023-12-04T15:40:16;14.38;;;6.75;;
70757;SDS011;59316;52.964;7.102;2023-12-04T15:45:38;12.20;;;7.32;;
70757;SDS011;59316;52.964;7.102;2023-12-04T15:50:59;12.38;;;5.97;;
70757;SDS011;59316;52.964;7.102;2023-12-04T15:56:21;13.82;;;6.35;;
70757;SDS011;59316;52.964;7.102;2023-12-04T16:01:42;15.70;;;6.75;;
70757;SDS011;59316;52.964;7.102;2023-12-04T16:07:03;13.02;;;6.63;;
70757;SDS011;59316;52.964;7.102;2023-12-04T16:12:25;48.30;;;20.08;;
70757;SDS011;59316;52.964;7.102;2023-12-04T16:17:46;15.60;;;6.70;;
70757;SDS011;59316;52.964;7.102;2023-12-04T16:23:08;14.88;;;9.55;;
70757;SDS011;59316;52.964;7.102;2023-12-04T16:28:29;13.27;;;6.20;;
70757;SDS011;59316;52.964;7.102;2023-12-04T16:33:50;13.07;;;6.63;;
70757;SDS011;59316;52.964;7.102;2023-12-04T16:39:12;15.38;;;7.05;;
70757;SDS011;59316;52.964;7.102;2023-12-04T16:44:33;15.68;;;7.45;;
70757;SDS011;59316;52.964;7.102;2023-12-04T16:49:55;12.25;;;6.13;;
70757;SDS011;59316;52.964;7.102;2023-12-04T16:55:16;13.80;;;6.78;;
70757;SDS011;59316;52.964;7.102;2023-12-04T17:00:37;12.73;;;6.45;;
70757;SDS011;59316;52.964;7.102;2023-12-04T17:05:59;14.15;;;6.10;;
70757;SDS011;59316;52.964;7.102;2023-12-04T17:11:20;13.50;;;6.55;;
70757;SDS011;59316;52.964;7.102;2023-12-04T17:16:42;15.38;;;6.88;;
70757;SDS011;59316;52.964;7.102;2023-12-04T17:22:03;13.10;;;6.88;;
70757;SDS011;59316;52.964;7.102;2023-12-04T17:27:25;16.48;;;7.13;;
70757;SDS011;59316;52.964;7.102;2023-12-04T17:32:46;14.40;;;7.50;;
70757;SDS011;59316;52.964;7.102;2023-12-04T17:38:08;23.35;;;13.50;;
70757;SDS011;59316;52.964;7.102;2023-12-04T17:43:30;13.30;;;6.57;;
70757;SDS011;59316;52.964;7.102;2023-12-04T17:48:51;14.88;;;7.10;;
70757;SDS011;59316;52.964;7.102;2023-12-04T17:54:14;15.38;;;7.15;;
70757;SDS011;59316;52.964;7.102;2023-12-04T17:59:35;14.77;;;6.38;;
70757;SDS011;59316;52.964;7.102;2023-12-04T18:04:57;11.70;;;5.97;;
70757;SDS011;59316;52.964;7.102;2023-12-04T18:10:18;16.20;;;6.30;;
70757;SDS011;59316;52.964;7.102;2023-12-04T18:15:40;13.43;;;6.47;;
70757;SDS011;59316;52.964;7.102;2023-12-04T18:21:01;13.20;;;6.28;;
70757;SDS011;59316;52.964;7.102;2023-12-04T18:26:23;14.80;;;6.60;;
70757;SDS011;59316;52.964;7.102;2023-12-04T18:31:45;13.10;;;6.97;;
70757;SDS011;59316;52.964;7.102;2023-12-04T18:37:10;14.25;;;6.82;;
70757;SDS011;59316;52.964;7.102;2023-12-04T18:42:59;15.07;;;6.32;;
70757;SDS011;59316;52.964;7.102;2023-12-04T18:48:21;13.85;;;6.95;;
70757;SDS011;59316;52.964;7.102;2023-12-04T18:59:06;15.38;;;6.70;;
70757;SDS011;59316;52.964;7.102;2023-12-04T19:04:27;13.57;;;5.97;;
70757;SDS011;59316;52.964;7.102;2023-12-04T19:09:49;16.17;;;6.65;;
70757;SDS011;59316;52.964;7.102;2023-12-04T19:15:10;12.68;;;6.30;;
70757;SDS011;59316;52.964;7.102;2023-12-04T19:20:32;14.20;;;6.80;;
70757;SDS011;59316;52.964;7.102;2023-12-04T19:25:53;13.68;;;6.63;;
70757;SDS011;59316;52.964;7.102;2023-12-04T19:31:15;14.20;;;6.82;;
70757;SDS011;59316;52.964;7.102;2023-12-04T19:36:36;13.93;;;6.97;;
70757;SDS011;59316;52.964;7.102;2023-12-04T19:41:58;16.60;;;7.55;;
70757;SDS011;59316;52.964;7.102;2023-12-04T19:47:20;14.68;;;7.10;;
70757;SDS011;59316;52.964;7.102;2023-12-04T19:52:41;13.15;;;6.78;;
70757;SDS011;59316;52.964;7.102;2023-12-04T19:58:02;14.15;;;7.32;;
70757;SDS011;59316;52.964;7.102;2023-12-04T20:03:25;16.63;;;7.70;;
70757;SDS011;59316;52.964;7.102;2023-12-04T20:08:46;14.98;;;7.22;;
70757;SDS011;59316;52.964;7.102;2023-12-04T20:14:10;15.00;;;6.93;;
70757;SDS011;59316;52.964;7.102;2023-12-04T20:24:53;13.38;;;7.07;;
70757;SDS011;59316;52.964;7.102;2023-12-04T20:30:14;16.45;;;7.75;;
70757;SDS011;59316;52.964;7.102;2023-12-04T20:35:35;14.55;;;6.72;;
70757;SDS011;59316;52.964;7.102;2023-12-04T20:40:56;14.70;;;7.43;;
70757;SDS011;59316;52.964;7.102;2023-12-04T20:46:18;16.60;;;7.57;;
70757;SDS011;59316;52.964;7.102;2023-12-04T20:51:39;18.30;;;8.57;;
70757;SDS011;59316;52.964;7.102;2023-12-04T20:57:01;16.48;;;7.63;;
70757;SDS011;59316;52.964;7.102;2023-12-04T21:02:22;16.38;;;7.43;;
70757;SDS011;59316;52.964;7.102;2023-12-04T21:07:43;16.98;;;7.90;;
70757;SDS011;59316;52.964;7.102;2023-12-04T21:13:04;17.13;;;7.68;;
70757;SDS011;59316;52.964;7.102;2023-12-04T21:18:26;15.27;;;7.95;;
70757;SDS011;59316;52.964;7.102;2023-12-04T21:23:48;14.95;;;8.00;;
70757;SDS011;59316;52.964;7.102;2023-12-04T21:29:09;17.42;;;8.57;;
70757;SDS011;59316;52.964;7.102;2023-12-04T21:34:31;17.55;;;7.78;;
70757;SDS011;59316;52.964;7.102;2023-12-04T21:39:52;21.08;;;8.20;;
70757;SDS011;59316;52.964;7.102;2023-12-04T21:45:14;17.77;;;8.45;;
70757;SDS011;59316;52.964;7.102;2023-12-04T21:50:36;20.38;;;9.25;;
70757;SDS011;59316;52.964;7.102;2023-12-04T21:55:57;19.73;;;8.82;;
70757;SDS011;59316;52.964;7.102;2023-12-04T22:01:19;19.65;;;8.63;;
70757;SDS011;59316;52.964;7.102;2023-12-04T22:06:40;18.45;;;9.57;;
70757;SDS011;59316;52.964;7.102;2023-12-04T22:12:01;23.35;;;9.52;;
70757;SDS011;59316;52.964;7.102;2023-12-04T22:17:23;22.77;;;9.57;;
70757;SDS011;59316;52.964;7.102;2023-12-04T22:22:44;21.38;;;9.57;;
70757;SDS011;59316;52.964;7.102;2023-12-04T22:28:06;21.80;;;10.15;;
70757;SDS011;59316;52.964;7.102;2023-12-04T22:33:28;20.40;;;10.07;;
70757;SDS011;59316;52.964;7.102;2023-12-04T22:38:49;21.52;;;10.25;;
70757;SDS011;59316;52.964;7.102;2023-12-04T22:44:11;18.10;;;9.38;;
70757;SDS011;59316;52.964;7.102;2023-12-04T22:49:32;19.02;;;9.93;;
70757;SDS011;59316;52.964;7.102;2023-12-04T22:54:54;21.98;;;10.32;;
70757;SDS011;59316;52.964;7.102;2023-12-04T23:00:15;23.10;;;10.57;;
70757;SDS011;59316;52.964;7.102;2023-12-04T23:05:37;22.63;;;10.93;;
70757;SDS011;59316;52.964;7.102;2023-12-04T23:10:59;20.83;;;9.27;;
70757;SDS011;59316;52.964;7.102;2023-12-04T23:16:21;26.55;;;11.30;;
70757;SDS011;59316;52.964;7.102;2023-12-04T23:21:42;22.45;;;10.38;;
70757;SDS011;59316;52.964;7.102;2023-12-04T23:27:04;21.30;;;10.38;;
70757;SDS011;59316;52.964;7.102;2023-12-04T23:32:25;21.67;;;10.13;;
70757;SDS011;59316;52.964;7.102;2023-12-04T23:37:46;22.30;;;10.88;;
70757;SDS011;59316;52.964;7.102;2023-12-04T23:43:08;24.13;;;10.77;;
70757;SDS011;59316;52.964;7.102;2023-12-04T23:48:29;22.58;;;10.30;;
70757;SDS011;59316;52.964;7.102;2023-12-04T23:53:51;25.35;;;11.25;;
70757;SDS011;59316;52.964;7.102;2023-12-04T23:59:13;22.05;;;10.98;;
